sensor_id;sensor_type;location;lat;lon;timestamp;temperature;humidity
60495;DHT22;46342;49.046;11.920;2023-11-19T00:02:13;7.90;69.50
60495;DHT22;46342;49.046;11.920;2023-11-19T00:04:39;7.90;69.50
60495;DHT22;46342;49.046;11.920;2023-11-19T00:07:05;7.90;69.50
60495;DHT22;46342;49.046;11.920;2023-11-19T00:09:33;7.90;69.50
60495;DHT22;46342;49.046;11.920;2023-11-19T00:12:00;7.90;69.50
60495;DHT22;46342;49.046;11.920;2023-11-19T00:14:26;7.90;69.50
60495;DHT22;46342;49.046;11.920;2023-11-19T00:16:52;7.90;69.50
60495;DHT22;46342;49.046;11.920;2023-11-19T00:19:19;7.90;69.40
60495;DHT22;46342;49.046;11.920;2023-11-19T00:21:44;7.90;69.50
60495;DHT22;46342;49.046;11.920;2023-11-19T00:24:11;7.90;69.50
60495;DHT22;46342;49.046;11.920;2023-11-19T00:26:38;7.90;69.50
60495;DHT22;46342;49.046;11.920;2023-11-19T00:29:04;7.90;69.50
60495;DHT22;46342;49.046;11.920;2023-11-19T00:31:29;7.90;69.50
60495;DHT22;46342;49.046;11.920;2023-11-19T00:33:55;7.90;69.50
60495;DHT22;46342;49.046;11.920;2023-11-19T00:36:20;7.90;69.50
60495;DHT22;46342;49.046;11.920;2023-11-19T00:38:46;7.90;69.50
60495;DHT22;46342;49.046;11.920;2023-11-19T00:41:12;7.90;69.50
60495;DHT22;46342;49.046;11.920;2023-11-19T00:43:37;7.90;69.50
60495;DHT22;46342;49.046;11.920;2023-11-19T00:46:06;7.90;69.50
60495;DHT22;46342;49.046;11.920;2023-11-19T00:48:32;7.90;69.50
60495;DHT22;46342;49.046;11.920;2023-11-19T00:50:58;7.90;69.50
60495;DHT22;46342;49.046;11.920;2023-11-19T00:53:23;7.90;69.60
60495;DHT22;46342;49.046;11.920;2023-11-19T00:55:49;7.90;69.70
60495;DHT22;46342;49.046;11.920;2023-11-19T00:58:14;7.90;69.70
60495;DHT22;46342;49.046;11.920;2023-11-19T01:00:40;7.90;69.60
60495;DHT22;46342;49.046;11.920;2023-11-19T01:03:05;7.90;69.70
60495;DHT22;46342;49.046;11.920;2023-11-19T01:05:32;7.90;69.60
60495;DHT22;46342;49.046;11.920;2023-11-19T01:07:58;7.90;69.70
60495;DHT22;46342;49.046;11.920;2023-11-19T01:10:24;7.90;69.70
60495;DHT22;46342;49.046;11.920;2023-11-19T01:12:51;7.90;69.70
60495;DHT22;46342;49.046;11.920;2023-11-19T01:15:17;7.90;69.80
60495;DHT22;46342;49.046;11.920;2023-11-19T01:17:44;7.90;69.80
60495;DHT22;46342;49.046;11.920;2023-11-19T01:20:10;7.90;69.90
60495;DHT22;46342;49.046;11.920;2023-11-19T01:22:38;7.90;69.80
60495;DHT22;46342;49.046;11.920;2023-11-19T01:25:04;7.90;69.70
60495;DHT22;46342;49.046;11.920;2023-11-19T01:27:31;7.90;69.80
60495;DHT22;46342;49.046;11.920;2023-11-19T01:29:56;7.90;69.90
60495;DHT22;46342;49.046;11.920;2023-11-19T01:32:22;7.90;69.90
60495;DHT22;46342;49.046;11.920;2023-11-19T01:34:49;7.90;69.90
60495;DHT22;46342;49.046;11.920;2023-11-19T01:37:15;7.90;69.80
60495;DHT22;46342;49.046;11.920;2023-11-19T01:39:43;7.90;69.90
60495;DHT22;46342;49.046;11.920;2023-11-19T01:42:09;7.90;70.00
60495;DHT22;46342;49.046;11.920;2023-11-19T01:44:35;7.90;69.80
60495;DHT22;46342;49.046;11.920;2023-11-19T01:47:01;7.90;69.80
60495;DHT22;46342;49.046;11.920;2023-11-19T01:49:27;7.90;69.90
60495;DHT22;46342;49.046;11.920;2023-11-19T01:51:54;7.90;69.90
60495;DHT22;46342;49.046;11.920;2023-11-19T01:54:20;7.90;70.00
60495;DHT22;46342;49.046;11.920;2023-11-19T01:56:45;7.90;70.00
60495;DHT22;46342;49.046;11.920;2023-11-19T01:59:12;7.90;70.00
60495;DHT22;46342;49.046;11.920;2023-11-19T02:01:39;7.90;70.00
60495;DHT22;46342;49.046;11.920;2023-11-19T02:04:09;7.90;70.00
60495;DHT22;46342;49.046;11.920;2023-11-19T02:06:37;7.90;70.20
60495;DHT22;46342;49.046;11.920;2023-11-19T02:09:06;7.90;70.10
60495;DHT22;46342;49.046;11.920;2023-11-19T02:11:34;7.90;70.00
60495;DHT22;46342;49.046;11.920;2023-11-19T02:14:00;7.90;70.00
60495;DHT22;46342;49.046;11.920;2023-11-19T02:16:26;7.90;70.00
60495;DHT22;46342;49.046;11.920;2023-11-19T02:18:51;7.90;70.00
60495;DHT22;46342;49.046;11.920;2023-11-19T02:21:17;7.90;70.00
60495;DHT22;46342;49.046;11.920;2023-11-19T02:23:43;7.90;70.00
60495;DHT22;46342;49.046;11.920;2023-11-19T02:26:47;7.90;69.90
60495;DHT22;46342;49.046;11.920;2023-11-19T02:29:11;8.00;70.60
60495;DHT22;46342;49.046;11.920;2023-11-19T02:31:37;7.90;70.00
60495;DHT22;46342;49.046;11.920;2023-11-19T02:34:02;7.90;69.90
60495;DHT22;46342;49.046;11.920;2023-11-19T02:36:28;8.00;70.20
60495;DHT22;46342;49.046;11.920;2023-11-19T02:38:54;8.00;70.20
60495;DHT22;46342;49.046;11.920;2023-11-19T02:41:20;7.90;70.80
60495;DHT22;46342;49.046;11.920;2023-11-19T02:43:45;7.90;70.00
60495;DHT22;46342;49.046;11.920;2023-11-19T02:46:14;7.90;70.00
60495;DHT22;46342;49.046;11.920;2023-11-19T02:48:39;7.90;70.00
60495;DHT22;46342;49.046;11.920;2023-11-19T02:51:05;7.90;70.00
60495;DHT22;46342;49.046;11.920;2023-11-19T02:53:35;7.90;70.00
60495;DHT22;46342;49.046;11.920;2023-11-19T02:56:00;7.90;70.00
60495;DHT22;46342;49.046;11.920;2023-11-19T02:58:31;7.90;70.00
60495;DHT22;46342;49.046;11.920;2023-11-19T03:00:57;7.90;70.00
60495;DHT22;46342;49.046;11.920;2023-11-19T03:03:27;7.90;70.00
60495;DHT22;46342;49.046;11.920;2023-11-19T03:06:04;7.90;70.30
60495;DHT22;46342;49.046;11.920;2023-11-19T03:08:30;7.90;70.20
60495;DHT22;46342;49.046;11.920;2023-11-19T03:10:55;7.90;70.20
60495;DHT22;46342;49.046;11.920;2023-11-19T03:13:21;7.90;70.20
60495;DHT22;46342;49.046;11.920;2023-11-19T03:15:47;7.90;70.30
60495;DHT22;46342;49.046;11.920;2023-11-19T03:18:13;7.90;70.30
60495;DHT22;46342;49.046;11.920;2023-11-19T03:20:38;7.90;70.40
60495;DHT22;46342;49.046;11.920;2023-11-19T03:23:04;8.00;70.60
60495;DHT22;46342;49.046;11.920;2023-11-19T03:25:31;8.00;70.60
60495;DHT22;46342;49.046;11.920;2023-11-19T03:28:02;8.00;70.60
60495;DHT22;46342;49.046;11.920;2023-11-19T03:30:28;8.10;70.70
60495;DHT22;46342;49.046;11.920;2023-11-19T03:32:57;8.00;70.60
60495;DHT22;46342;49.046;11.920;2023-11-19T03:35:23;8.00;70.60
60495;DHT22;46342;49.046;11.920;2023-11-19T03:37:50;8.00;70.60
60495;DHT22;46342;49.046;11.920;2023-11-19T03:40:17;8.00;70.60
60495;DHT22;46342;49.046;11.920;2023-11-19T03:42:44;8.10;70.60
60495;DHT22;46342;49.046;11.920;2023-11-19T03:45:10;8.10;70.50
60495;DHT22;46342;49.046;11.920;2023-11-19T03:47:36;8.10;70.40
60495;DHT22;46342;49.046;11.920;2023-11-19T03:50:02;8.10;70.30
60495;DHT22;46342;49.046;11.920;2023-11-19T03:52:28;8.10;70.30
60495;DHT22;46342;49.046;11.920;2023-11-19T03:54:54;8.10;70.30
60495;DHT22;46342;49.046;11.920;2023-11-19T03:57:21;8.10;70.40
60495;DHT22;46342;49.046;11.920;2023-11-19T03:59:46;8.10;70.40
60495;DHT22;46342;49.046;11.920;2023-11-19T04:02:12;8.10;70.50
60495;DHT22;46342;49.046;11.920;2023-11-19T04:04:38;8.10;70.50
60495;DHT22;46342;49.046;11.920;2023-11-19T04:07:05;8.10;70.50
60495;DHT22;46342;49.046;11.920;2023-11-19T04:09:31;8.10;70.50
60495;DHT22;46342;49.046;11.920;2023-11-19T04:11:58;8.10;70.50
60495;DHT22;46342;49.046;11.920;2023-11-19T04:14:24;8.10;70.50
60495;DHT22;46342;49.046;11.920;2023-11-19T04:16:50;8.10;70.60
60495;DHT22;46342;49.046;11.920;2023-11-19T04:19:16;8.10;70.70
60495;DHT22;46342;49.046;11.920;2023-11-19T04:21:42;8.10;70.70
60495;DHT22;46342;49.046;11.920;2023-11-19T04:24:09;8.10;70.70
60495;DHT22;46342;49.046;11.920;2023-11-19T04:26:44;8.10;70.70
60495;DHT22;46342;49.046;11.920;2023-11-19T04:29:12;8.10;70.80
60495;DHT22;46342;49.046;11.920;2023-11-19T04:31:38;8.10;70.60
60495;DHT22;46342;49.046;11.920;2023-11-19T04:34:05;8.10;70.50
60495;DHT22;46342;49.046;11.920;2023-11-19T04:36:32;8.10;70.30
60495;DHT22;46342;49.046;11.920;2023-11-19T04:38:58;8.10;70.30
60495;DHT22;46342;49.046;11.920;2023-11-19T04:41:25;8.10;70.30
60495;DHT22;46342;49.046;11.920;2023-11-19T04:43:50;8.10;70.30
60495;DHT22;46342;49.046;11.920;2023-11-19T04:46:16;8.10;70.40
60495;DHT22;46342;49.046;11.920;2023-11-19T04:48:41;8.10;70.40
60495;DHT22;46342;49.046;11.920;2023-11-19T04:51:07;8.10;70.30
60495;DHT22;46342;49.046;11.920;2023-11-19T04:53:35;8.10;70.40
60495;DHT22;46342;49.046;11.920;2023-11-19T04:56:00;8.10;70.30
60495;DHT22;46342;49.046;11.920;2023-11-19T04:58:28;8.10;70.30
60495;DHT22;46342;49.046;11.920;2023-11-19T05:00:54;8.00;70.30
60495;DHT22;46342;49.046;11.920;2023-11-19T05:03:19;8.00;70.30
60495;DHT22;46342;49.046;11.920;2023-11-19T05:05:45;8.10;70.30
60495;DHT22;46342;49.046;11.920;2023-11-19T05:08:10;8.00;70.30
60495;DHT22;46342;49.046;11.920;2023-11-19T05:10:37;8.00;70.40
60495;DHT22;46342;49.046;11.920;2023-11-19T05:13:02;8.00;71.30
60495;DHT22;46342;49.046;11.920;2023-11-19T05:15:28;8.00;70.50
60495;DHT22;46342;49.046;11.920;2023-11-19T05:17:53;8.00;70.50
60495;DHT22;46342;49.046;11.920;2023-11-19T05:20:19;8.00;70.60
60495;DHT22;46342;49.046;11.920;2023-11-19T05:22:44;8.00;70.60
60495;DHT22;46342;49.046;11.920;2023-11-19T05:25:11;8.00;70.60
60495;DHT22;46342;49.046;11.920;2023-11-19T05:27:37;8.00;70.60
60495;DHT22;46342;49.046;11.920;2023-11-19T05:30:04;8.10;70.90
60495;DHT22;46342;49.046;11.920;2023-11-19T05:32:33;8.00;70.80
60495;DHT22;46342;49.046;11.920;2023-11-19T05:34:58;8.00;70.80
60495;DHT22;46342;49.046;11.920;2023-11-19T05:37:24;8.00;70.80
60495;DHT22;46342;49.046;11.920;2023-11-19T05:39:50;8.10;70.90
60495;DHT22;46342;49.046;11.920;2023-11-19T05:42:16;8.10;71.00
60495;DHT22;46342;49.046;11.920;2023-11-19T05:44:42;8.10;70.90
60495;DHT22;46342;49.046;11.920;2023-11-19T05:47:08;8.10;71.00
60495;DHT22;46342;49.046;11.920;2023-11-19T05:49:33;8.10;71.00
60495;DHT22;46342;49.046;11.920;2023-11-19T05:51:59;8.10;70.90
60495;DHT22;46342;49.046;11.920;2023-11-19T05:54:24;8.10;71.00
60495;DHT22;46342;49.046;11.920;2023-11-19T05:56:51;8.10;71.00
60495;DHT22;46342;49.046;11.920;2023-11-19T05:59:19;8.10;71.00
60495;DHT22;46342;49.046;11.920;2023-11-19T06:01:45;8.10;70.90
60495;DHT22;46342;49.046;11.920;2023-11-19T06:04:10;8.10;70.90
60495;DHT22;46342;49.046;11.920;2023-11-19T06:06:36;8.20;71.00
60495;DHT22;46342;49.046;11.920;2023-11-19T06:09:03;8.20;71.10
60495;DHT22;46342;49.046;11.920;2023-11-19T06:11:28;8.20;71.20
60495;DHT22;46342;49.046;11.920;2023-11-19T06:13:54;8.20;71.20
60495;DHT22;46342;49.046;11.920;2023-11-19T06:16:20;8.20;71.20
60495;DHT22;46342;49.046;11.920;2023-11-19T06:18:45;8.20;71.20
60495;DHT22;46342;49.046;11.920;2023-11-19T06:21:12;8.20;71.40
60495;DHT22;46342;49.046;11.920;2023-11-19T06:23:38;8.20;71.40
60495;DHT22;46342;49.046;11.920;2023-11-19T06:26:04;8.20;71.40
60495;DHT22;46342;49.046;11.920;2023-11-19T06:28:30;8.20;71.40
60495;DHT22;46342;49.046;11.920;2023-11-19T06:30:56;8.20;71.50
60495;DHT22;46342;49.046;11.920;2023-11-19T06:33:26;8.20;71.50
60495;DHT22;46342;49.046;11.920;2023-11-19T06:35:52;8.30;71.60
60495;DHT22;46342;49.046;11.920;2023-11-19T06:38:18;8.30;71.60
60495;DHT22;46342;49.046;11.920;2023-11-19T06:40:44;8.30;71.70
60495;DHT22;46342;49.046;11.920;2023-11-19T06:43:09;8.30;71.70
60495;DHT22;46342;49.046;11.920;2023-11-19T06:45:35;8.40;71.90
60495;DHT22;46342;49.046;11.920;2023-11-19T06:48:02;8.40;71.90
60495;DHT22;46342;49.046;11.920;2023-11-19T06:50:33;8.40;71.90
60495;DHT22;46342;49.046;11.920;2023-11-19T06:52:59;8.40;72.10
60495;DHT22;46342;49.046;11.920;2023-11-19T06:55:25;8.40;72.00
60495;DHT22;46342;49.046;11.920;2023-11-19T06:57:51;8.40;71.90
60495;DHT22;46342;49.046;11.920;2023-11-19T07:00:17;8.50;72.00
60495;DHT22;46342;49.046;11.920;2023-11-19T07:02:43;8.50;72.00
60495;DHT22;46342;49.046;11.920;2023-11-19T07:05:10;8.50;72.00
60495;DHT22;46342;49.046;11.920;2023-11-19T07:07:35;8.60;72.10
60495;DHT22;46342;49.046;11.920;2023-11-19T07:10:01;8.50;72.00
60495;DHT22;46342;49.046;11.920;2023-11-19T07:12:27;8.60;72.10
60495;DHT22;46342;49.046;11.920;2023-11-19T07:14:53;8.50;72.00
60495;DHT22;46342;49.046;11.920;2023-11-19T07:17:20;8.60;72.10
60495;DHT22;46342;49.046;11.920;2023-11-19T07:19:47;8.60;73.00
60495;DHT22;46342;49.046;11.920;2023-11-19T07:22:13;8.60;72.10
60495;DHT22;46342;49.046;11.920;2023-11-19T07:24:40;8.60;72.10
60495;DHT22;46342;49.046;11.920;2023-11-19T07:27:07;8.60;72.10
60495;DHT22;46342;49.046;11.920;2023-11-19T07:29:34;8.60;72.10
60495;DHT22;46342;49.046;11.920;2023-11-19T07:32:00;8.70;72.20
60495;DHT22;46342;49.046;11.920;2023-11-19T07:34:27;8.70;72.30
60495;DHT22;46342;49.046;11.920;2023-11-19T07:36:53;8.70;72.40
60495;DHT22;46342;49.046;11.920;2023-11-19T07:39:19;8.70;72.40
60495;DHT22;46342;49.046;11.920;2023-11-19T07:41:46;8.80;73.40
60495;DHT22;46342;49.046;11.920;2023-11-19T07:44:11;8.80;72.50
60495;DHT22;46342;49.046;11.920;2023-11-19T07:46:37;8.80;72.50
60495;DHT22;46342;49.046;11.920;2023-11-19T07:49:03;8.80;72.50
60495;DHT22;46342;49.046;11.920;2023-11-19T07:51:28;8.90;72.60
60495;DHT22;46342;49.046;11.920;2023-11-19T07:53:54;8.90;72.50
60495;DHT22;46342;49.046;11.920;2023-11-19T07:56:19;8.90;72.50
60495;DHT22;46342;49.046;11.920;2023-11-19T07:58:45;8.90;72.50
60495;DHT22;46342;49.046;11.920;2023-11-19T08:01:10;8.90;72.40
60495;DHT22;46342;49.046;11.920;2023-11-19T08:03:36;8.90;72.40
60495;DHT22;46342;49.046;11.920;2023-11-19T08:06:03;9.00;72.50
60495;DHT22;46342;49.046;11.920;2023-11-19T08:08:29;9.00;72.60
60495;DHT22;46342;49.046;11.920;2023-11-19T08:10:56;9.00;72.50
60495;DHT22;46342;49.046;11.920;2023-11-19T08:13:23;9.00;72.50
60495;DHT22;46342;49.046;11.920;2023-11-19T08:15:49;9.00;72.60
60495;DHT22;46342;49.046;11.920;2023-11-19T08:18:14;9.00;72.60
60495;DHT22;46342;49.046;11.920;2023-11-19T08:20:40;9.10;72.70
60495;DHT22;46342;49.046;11.920;2023-11-19T08:23:06;9.10;72.80
60495;DHT22;46342;49.046;11.920;2023-11-19T08:25:32;9.10;72.80
60495;DHT22;46342;49.046;11.920;2023-11-19T08:27:59;9.10;72.90
60495;DHT22;46342;49.046;11.920;2023-11-19T08:30:25;9.20;73.00
60495;DHT22;46342;49.046;11.920;2023-11-19T08:32:51;9.20;73.00
60495;DHT22;46342;49.046;11.920;2023-11-19T08:35:16;9.20;73.00
60495;DHT22;46342;49.046;11.920;2023-11-19T08:37:42;9.20;73.10
60495;DHT22;46342;49.046;11.920;2023-11-19T08:40:08;9.20;73.20
60495;DHT22;46342;49.046;11.920;2023-11-19T08:42:33;9.30;73.30
60495;DHT22;46342;49.046;11.920;2023-11-19T08:44:59;9.30;73.30
60495;DHT22;46342;49.046;11.920;2023-11-19T08:47:24;9.30;73.40
60495;DHT22;46342;49.046;11.920;2023-11-19T08:49:51;9.30;73.50
60495;DHT22;46342;49.046;11.920;2023-11-19T08:52:17;9.40;73.70
60495;DHT22;46342;49.046;11.920;2023-11-19T08:54:43;9.40;73.60
60495;DHT22;46342;49.046;11.920;2023-11-19T08:57:09;9.40;73.80
60495;DHT22;46342;49.046;11.920;2023-11-19T08:59:35;9.50;73.90
60495;DHT22;46342;49.046;11.920;2023-11-19T09:02:00;9.50;74.20
60495;DHT22;46342;49.046;11.920;2023-11-19T09:04:27;9.60;74.50
60495;DHT22;46342;49.046;11.920;2023-11-19T09:06:53;9.60;74.70
60495;DHT22;46342;49.046;11.920;2023-11-19T09:09:18;9.70;75.10
60495;DHT22;46342;49.046;11.920;2023-11-19T09:11:44;9.70;75.30
60495;DHT22;46342;49.046;11.920;2023-11-19T09:14:09;9.80;75.60
60495;DHT22;46342;49.046;11.920;2023-11-19T09:16:35;9.90;76.10
60495;DHT22;46342;49.046;11.920;2023-11-19T09:19:00;10.00;75.10
60495;DHT22;46342;49.046;11.920;2023-11-19T09:21:28;10.10;75.30
60495;DHT22;46342;49.046;11.920;2023-11-19T09:23:56;10.10;75.30
60495;DHT22;46342;49.046;11.920;2023-11-19T09:26:22;10.20;75.40
60495;DHT22;46342;49.046;11.920;2023-11-19T09:28:48;10.30;75.70
60495;DHT22;46342;49.046;11.920;2023-11-19T09:31:17;10.40;75.90
60495;DHT22;46342;49.046;11.920;2023-11-19T09:33:43;10.50;76.70
60495;DHT22;46342;49.046;11.920;2023-11-19T09:36:09;10.60;76.50
60495;DHT22;46342;49.046;11.920;2023-11-19T09:38:39;10.70;76.40
60495;DHT22;46342;49.046;11.920;2023-11-19T09:41:05;10.80;76.60
60495;DHT22;46342;49.046;11.920;2023-11-19T09:43:35;10.90;76.80
60495;DHT22;46342;49.046;11.920;2023-11-19T09:46:06;11.00;76.90
60495;DHT22;46342;49.046;11.920;2023-11-19T09:48:35;11.10;77.50
60495;DHT22;46342;49.046;11.920;2023-11-19T09:51:01;11.20;77.60
60495;DHT22;46342;49.046;11.920;2023-11-19T09:53:27;11.30;77.40
60495;DHT22;46342;49.046;11.920;2023-11-19T09:55:53;11.40;77.40
60495;DHT22;46342;49.046;11.920;2023-11-19T09:58:20;11.50;77.60
60495;DHT22;46342;49.046;11.920;2023-11-19T10:00:47;11.60;78.40
60495;DHT22;46342;49.046;11.920;2023-11-19T10:03:12;11.70;77.70
60495;DHT22;46342;49.046;11.920;2023-11-19T10:05:38;11.80;77.70
60495;DHT22;46342;49.046;11.920;2023-11-19T10:08:05;11.90;77.70
60495;DHT22;46342;49.046;11.920;2023-11-19T10:10:30;12.00;78.80
60495;DHT22;46342;49.046;11.920;2023-11-19T10:12:56;12.00;77.60
60495;DHT22;46342;49.046;11.920;2023-11-19T10:15:24;12.10;77.70
60495;DHT22;46342;49.046;11.920;2023-11-19T10:17:59;12.20;77.70
60495;DHT22;46342;49.046;11.920;2023-11-19T10:20:24;12.30;78.40
60495;DHT22;46342;49.046;11.920;2023-11-19T10:22:56;12.40;77.60
60495;DHT22;46342;49.046;11.920;2023-11-19T10:25:23;12.50;79.30
60495;DHT22;46342;49.046;11.920;2023-11-19T10:27:50;12.50;77.90
60495;DHT22;46342;49.046;11.920;2023-11-19T10:30:23;12.60;77.90
60495;DHT22;46342;49.046;11.920;2023-11-19T10:35:54;12.80;78.70
60495;DHT22;46342;49.046;11.920;2023-11-19T10:38:20;12.90;78.50
60495;DHT22;46342;49.046;11.920;2023-11-19T10:40:47;12.90;77.40
60495;DHT22;46342;49.046;11.920;2023-11-19T10:43:13;12.90;77.10
60495;DHT22;46342;49.046;11.920;2023-11-19T10:45:40;13.00;77.00
60495;DHT22;46342;49.046;11.920;2023-11-19T10:48:06;13.10;77.10
60495;DHT22;46342;49.046;11.920;2023-11-19T10:50:37;13.10;77.00
60495;DHT22;46342;49.046;11.920;2023-11-19T10:53:04;13.10;77.20
60495;DHT22;46342;49.046;11.920;2023-11-19T10:55:34;13.20;77.10
60495;DHT22;46342;49.046;11.920;2023-11-19T10:58:13;13.20;77.40
60495;DHT22;46342;49.046;11.920;2023-11-19T11:00:52;13.30;77.60
60495;DHT22;46342;49.046;11.920;2023-11-19T11:03:24;13.30;78.00
60495;DHT22;46342;49.046;11.920;2023-11-19T11:05:52;13.40;77.90
60495;DHT22;46342;49.046;11.920;2023-11-19T11:08:18;13.40;77.50
60495;DHT22;46342;49.046;11.920;2023-11-19T11:10:54;13.50;77.50
60495;DHT22;46342;49.046;11.920;2023-11-19T11:13:22;13.50;78.00
60495;DHT22;46342;49.046;11.920;2023-11-19T11:15:49;13.60;78.20
60495;DHT22;46342;49.046;11.920;2023-11-19T11:18:16;13.60;78.30
60495;DHT22;46342;49.046;11.920;2023-11-19T11:20:44;13.70;78.50
60495;DHT22;46342;49.046;11.920;2023-11-19T11:26:30;13.90;79.20
60495;DHT22;46342;49.046;11.920;2023-11-19T11:34:16;14.10;78.50
60495;DHT22;46342;49.046;11.920;2023-11-19T11:36:53;14.20;77.60
60495;DHT22;46342;49.046;11.920;2023-11-19T11:39:22;14.20;77.70
60495;DHT22;46342;49.046;11.920;2023-11-19T11:45:15;14.30;77.60
60495;DHT22;46342;49.046;11.920;2023-11-19T11:50:11;14.40;76.90
60495;DHT22;46342;49.046;11.920;2023-11-19T11:58:19;14.50;76.90
60495;DHT22;46342;49.046;11.920;2023-11-19T12:00:47;14.50;76.50
60495;DHT22;46342;49.046;11.920;2023-11-19T12:03:13;14.50;76.40
60495;DHT22;46342;49.046;11.920;2023-11-19T12:05:41;14.50;76.40
60495;DHT22;46342;49.046;11.920;2023-11-19T12:08:09;14.60;76.50
60495;DHT22;46342;49.046;11.920;2023-11-19T12:10:43;14.60;76.30
60495;DHT22;46342;49.046;11.920;2023-11-19T12:13:09;14.60;76.30
60495;DHT22;46342;49.046;11.920;2023-11-19T12:20:55;14.70;76.10
60495;DHT22;46342;49.046;11.920;2023-11-19T12:23:21;14.70;75.80
60495;DHT22;46342;49.046;11.920;2023-11-19T12:25:47;14.70;75.70
60495;DHT22;46342;49.046;11.920;2023-11-19T12:28:13;14.70;75.70
60495;DHT22;46342;49.046;11.920;2023-11-19T12:30:39;14.70;75.70
60495;DHT22;46342;49.046;11.920;2023-11-19T12:33:08;14.70;75.50
60495;DHT22;46342;49.046;11.920;2023-11-19T12:35:41;14.70;75.50
60495;DHT22;46342;49.046;11.920;2023-11-19T12:38:07;14.70;75.40
60495;DHT22;46342;49.046;11.920;2023-11-19T12:40:33;14.70;75.20
60495;DHT22;46342;49.046;11.920;2023-11-19T12:42:59;14.70;75.10
60495;DHT22;46342;49.046;11.920;2023-11-19T12:45:34;14.70;75.10
60495;DHT22;46342;49.046;11.920;2023-11-19T12:48:08;14.70;75.00
60495;DHT22;46342;49.046;11.920;2023-11-19T12:50:54;14.70;74.80
60495;DHT22;46342;49.046;11.920;2023-11-19T12:53:21;14.70;74.60
60495;DHT22;46342;49.046;11.920;2023-11-19T12:55:47;14.70;74.40
60495;DHT22;46342;49.046;11.920;2023-11-19T12:58:33;14.70;74.40
60495;DHT22;46342;49.046;11.920;2023-11-19T13:01:06;14.70;74.20
60495;DHT22;46342;49.046;11.920;2023-11-19T13:03:34;14.60;74.10
60495;DHT22;46342;49.046;11.920;2023-11-19T13:06:04;14.60;74.10
60495;DHT22;46342;49.046;11.920;2023-11-19T13:08:40;14.60;74.10
60495;DHT22;46342;49.046;11.920;2023-11-19T13:11:06;14.60;74.10
60495;DHT22;46342;49.046;11.920;2023-11-19T13:13:58;14.50;73.90
60495;DHT22;46342;49.046;11.920;2023-11-19T13:16:25;14.50;74.10
60495;DHT22;46342;49.046;11.920;2023-11-19T13:18:51;14.50;74.10
60495;DHT22;46342;49.046;11.920;2023-11-19T13:21:17;14.40;74.10
60495;DHT22;46342;49.046;11.920;2023-11-19T13:23:46;14.40;75.30
60495;DHT22;46342;49.046;11.920;2023-11-19T13:26:13;14.40;74.60
60495;DHT22;46342;49.046;11.920;2023-11-19T13:28:40;14.40;74.90
60495;DHT22;46342;49.046;11.920;2023-11-19T13:31:06;14.50;75.40
60495;DHT22;46342;49.046;11.920;2023-11-19T13:33:31;14.50;75.60
60495;DHT22;46342;49.046;11.920;2023-11-19T13:35:57;14.50;75.70
60495;DHT22;46342;49.046;11.920;2023-11-19T13:38:23;14.60;75.70
60495;DHT22;46342;49.046;11.920;2023-11-19T13:40:49;14.60;75.50
60495;DHT22;46342;49.046;11.920;2023-11-19T13:43:15;14.70;75.40
60495;DHT22;46342;49.046;11.920;2023-11-19T13:45:40;14.70;75.30
60495;DHT22;46342;49.046;11.920;2023-11-19T13:48:06;14.70;75.10
60495;DHT22;46342;49.046;11.920;2023-11-19T13:50:31;14.80;75.10
60495;DHT22;46342;49.046;11.920;2023-11-19T13:52:59;14.80;74.90
60495;DHT22;46342;49.046;11.920;2023-11-19T13:55:25;14.80;74.70
60495;DHT22;46342;49.046;11.920;2023-11-19T13:57:51;14.80;74.50
60495;DHT22;46342;49.046;11.920;2023-11-19T14:00:17;14.90;74.40
60495;DHT22;46342;49.046;11.920;2023-11-19T14:02:45;14.90;74.10
60495;DHT22;46342;49.046;11.920;2023-11-19T14:05:10;14.90;74.00
60495;DHT22;46342;49.046;11.920;2023-11-19T14:07:37;14.90;73.90
60495;DHT22;46342;49.046;11.920;2023-11-19T14:10:03;14.90;73.50
60495;DHT22;46342;49.046;11.920;2023-11-19T14:12:30;14.90;73.40
60495;DHT22;46342;49.046;11.920;2023-11-19T14:14:56;15.00;73.30
60495;DHT22;46342;49.046;11.920;2023-11-19T14:17:21;15.00;74.00
60495;DHT22;46342;49.046;11.920;2023-11-19T14:19:47;14.90;72.90
60495;DHT22;46342;49.046;11.920;2023-11-19T14:22:12;14.90;72.60
60495;DHT22;46342;49.046;11.920;2023-11-19T14:24:38;14.90;72.50
60495;DHT22;46342;49.046;11.920;2023-11-19T14:27:06;14.90;72.20
60495;DHT22;46342;49.046;11.920;2023-11-19T14:29:31;14.90;72.00
60495;DHT22;46342;49.046;11.920;2023-11-19T14:31:57;14.80;71.70
60495;DHT22;46342;49.046;11.920;2023-11-19T14:34:24;14.80;71.70
60495;DHT22;46342;49.046;11.920;2023-11-19T14:36:51;14.80;71.70
60495;DHT22;46342;49.046;11.920;2023-11-19T14:39:17;14.70;71.50
60495;DHT22;46342;49.046;11.920;2023-11-19T14:41:43;14.70;71.50
60495;DHT22;46342;49.046;11.920;2023-11-19T14:44:10;14.70;71.50
60495;DHT22;46342;49.046;11.920;2023-11-19T14:46:35;14.70;71.40
60495;DHT22;46342;49.046;11.920;2023-11-19T14:49:01;14.60;71.40
60495;DHT22;46342;49.046;11.920;2023-11-19T14:51:27;14.60;72.20
60495;DHT22;46342;49.046;11.920;2023-11-19T14:53:52;14.60;71.30
60495;DHT22;46342;49.046;11.920;2023-11-19T14:56:18;14.60;71.20
60495;DHT22;46342;49.046;11.920;2023-11-19T14:58:43;14.50;71.10
60495;DHT22;46342;49.046;11.920;2023-11-19T15:01:13;14.50;71.00
60495;DHT22;46342;49.046;11.920;2023-11-19T15:03:39;14.50;70.80
60495;DHT22;46342;49.046;11.920;2023-11-19T15:06:06;14.40;70.90
60495;DHT22;46342;49.046;11.920;2023-11-19T15:08:32;14.40;70.90
60495;DHT22;46342;49.046;11.920;2023-11-19T15:10:58;14.40;70.90
60495;DHT22;46342;49.046;11.920;2023-11-19T15:13:23;14.30;70.70
60495;DHT22;46342;49.046;11.920;2023-11-19T15:15:49;14.30;71.50
60495;DHT22;46342;49.046;11.920;2023-11-19T15:18:15;14.30;70.70
60495;DHT22;46342;49.046;11.920;2023-11-19T15:20:42;14.20;70.50
60495;DHT22;46342;49.046;11.920;2023-11-19T15:23:15;14.20;71.40
60495;DHT22;46342;49.046;11.920;2023-11-19T15:25:41;14.20;70.40
60495;DHT22;46342;49.046;11.920;2023-11-19T15:28:07;14.10;70.20
60495;DHT22;46342;49.046;11.920;2023-11-19T15:30:33;14.10;70.20
60495;DHT22;46342;49.046;11.920;2023-11-19T15:32:58;14.10;70.20
60495;DHT22;46342;49.046;11.920;2023-11-19T15:35:24;14.10;70.20
60495;DHT22;46342;49.046;11.920;2023-11-19T15:37:50;14.00;69.90
60495;DHT22;46342;49.046;11.920;2023-11-19T15:40:16;14.00;70.00
60495;DHT22;46342;49.046;11.920;2023-11-19T15:42:41;14.00;70.00
60495;DHT22;46342;49.046;11.920;2023-11-19T15:45:11;14.00;69.90
60495;DHT22;46342;49.046;11.920;2023-11-19T15:47:38;14.00;69.90
60495;DHT22;46342;49.046;11.920;2023-11-19T15:50:06;13.90;69.60
60495;DHT22;46342;49.046;11.920;2023-11-19T15:52:36;13.90;69.60